createdAt,value
2023-04-06T00:01:16.724Z,10.67
2023-04-06T00:04:04.373Z,9.77
2023-04-06T00:06:51.857Z,9.23
2023-04-06T00:09:39.252Z,9.30
2023-04-06T00:12:26.645Z,13.33
2023-04-06T00:15:14.189Z,11.50
2023-04-06T00:18:01.947Z,8.33
2023-04-06T00:20:49.421Z,12.17
2023-04-06T00:23:36.930Z,11.67
2023-04-06T00:26:24.359Z,8.83
2023-04-06T00:29:11.772Z,9.40
2023-04-06T00:31:59.219Z,11.23
2023-04-06T00:34:46.733Z,12.13
2023-04-06T00:37:34.361Z,10.80
2023-04-06T00:40:21.747Z,12.33
2023-04-06T00:43:12.412Z,9.27
2023-04-06T00:45:59.822Z,9.10
2023-04-06T00:48:47.288Z,11.60
2023-04-06T00:51:34.695Z,11.57
2023-04-06T00:54:22.091Z,9.23
2023-04-06T00:57:09.601Z,9.40
2023-04-06T00:59:57.090Z,11.30
2023-04-06T01:02:46.150Z,8.40
2023-04-06T01:05:35.429Z,8.07
2023-04-06T01:08:22.843Z,9.13
2023-04-06T01:11:10.317Z,12.17
2023-04-06T01:13:57.665Z,7.13
2023-04-06T01:16:45.097Z,10.90
2023-04-06T01:19:32.456Z,12.17
2023-04-06T01:22:20.174Z,8.73
2023-04-06T01:25:07.973Z,16.10
2023-04-06T01:27:55.379Z,11.57
2023-04-06T01:30:42.839Z,10.13
2023-04-06T01:33:30.433Z,10.20
2023-04-06T01:36:17.991Z,7.70
2023-04-06T01:39:05.432Z,10.63
2023-04-06T01:41:52.840Z,8.73
2023-04-06T01:44:40.472Z,9.27
2023-04-06T01:47:28.022Z,7.57
2023-04-06T01:50:15.496Z,8.80
2023-04-06T01:53:02.920Z,11.53
2023-04-06T01:55:50.364Z,9.10
2023-04-06T01:58:37.752Z,8.67
2023-04-06T02:01:25.501Z,7.87
2023-04-06T02:04:14.545Z,8.03
2023-04-06T02:07:02.101Z,9.60
2023-04-06T02:09:49.619Z,7.53
2023-04-06T02:12:37.013Z,7.83
2023-04-06T02:15:24.524Z,11.30
2023-04-06T02:18:11.926Z,8.23
2023-04-06T02:20:59.323Z,8.20
2023-04-06T02:23:46.725Z,8.87
2023-04-06T02:26:34.100Z,10.10
2023-04-06T02:29:21.717Z,9.77
2023-04-06T02:32:09.250Z,7.43
2023-04-06T02:34:56.698Z,8.10
2023-04-06T02:37:44.144Z,10.77
2023-04-06T02:40:31.536Z,12.93
2023-04-06T02:43:19.009Z,9.77
2023-04-06T02:46:06.598Z,9.77
2023-04-06T02:48:54.115Z,11.17
2023-04-06T02:51:41.501Z,8.93
2023-04-06T02:54:28.878Z,9.43
2023-04-06T02:57:16.594Z,9.87
2023-04-06T03:00:04.166Z,7.90
2023-04-06T03:02:51.610Z,8.10
2023-04-06T03:05:39.123Z,9.00
2023-04-06T03:08:26.515Z,14.03
2023-04-06T03:11:14.096Z,10.30
2023-04-06T03:14:01.564Z,8.87
2023-04-06T03:16:49.805Z,9.70
2023-04-06T03:19:37.456Z,8.90
2023-04-06T03:22:24.849Z,9.80
2023-04-06T03:25:12.290Z,10.70
2023-04-06T03:27:59.657Z,9.90
2023-04-06T03:30:47.258Z,8.33
2023-04-06T03:33:34.657Z,10.60
2023-04-06T03:36:22.038Z,8.67
2023-04-06T03:39:09.561Z,7.80
2023-04-06T03:41:57.157Z,10.20
2023-04-06T03:44:44.590Z,12.23
2023-04-06T03:47:31.992Z,13.07
2023-04-06T03:50:19.500Z,11.03
2023-04-06T03:53:06.917Z,10.93
2023-04-06T03:55:54.309Z,18.63
2023-04-06T03:58:41.767Z,16.90
2023-04-06T04:01:29.244Z,17.37
2023-04-06T04:04:16.659Z,11.87
2023-04-06T04:07:04.108Z,12.33
2023-04-06T04:09:51.612Z,9.70
2023-04-06T04:12:39.005Z,13.63
2023-04-06T04:15:26.423Z,13.80
2023-04-06T04:18:13.819Z,13.00
2023-04-06T04:21:01.749Z,13.40
2023-04-06T04:23:49.227Z,13.27
2023-04-06T04:26:36.652Z,15.27
2023-04-06T04:29:24.451Z,17.57
2023-04-06T04:32:12.285Z,15.23
2023-04-06T04:34:59.767Z,15.03
2023-04-06T04:37:47.157Z,12.50
2023-04-06T04:40:34.512Z,14.40
2023-04-06T04:43:21.928Z,12.80
2023-04-06T04:46:09.378Z,15.57
2023-04-06T04:48:56.896Z,13.57
2023-04-06T04:51:44.255Z,16.33
2023-04-06T04:54:31.683Z,18.60
2023-04-06T04:57:19.256Z,14.37
2023-04-06T05:00:07.186Z,13.83
2023-04-06T05:02:54.680Z,14.27
2023-04-06T05:05:42.122Z,18.10
2023-04-06T05:08:29.568Z,18.50
2023-04-06T05:11:16.957Z,14.53
2023-04-06T05:14:04.406Z,13.73
2023-04-06T05:16:51.828Z,13.67
2023-04-06T05:19:39.418Z,12.80
2023-04-06T05:22:27.192Z,16.43
2023-04-06T05:25:15.026Z,15.03
2023-04-06T05:28:02.520Z,13.93
2023-04-06T05:30:50.203Z,14.73
2023-04-06T05:33:37.663Z,12.83
2023-04-06T05:36:25.734Z,13.60
2023-04-06T05:39:13.347Z,12.13
2023-04-06T05:42:03.480Z,13.73
2023-04-06T05:44:51.037Z,17.90
2023-04-06T05:47:39.142Z,14.57
2023-04-06T05:50:26.645Z,18.47
2023-04-06T05:53:14.026Z,15.80
2023-04-06T05:56:04.827Z,14.70
2023-04-06T05:58:52.270Z,15.27
2023-04-06T06:01:39.894Z,17.43
2023-04-06T06:04:27.318Z,15.87
2023-04-06T06:07:15.598Z,19.23
2023-04-06T06:10:03.008Z,16.43
2023-04-06T06:12:50.540Z,20.37
2023-04-06T06:15:37.929Z,17.90
2023-04-06T06:18:25.315Z,16.93
2023-04-06T06:21:13.321Z,16.90
2023-04-06T06:24:00.846Z,18.53
2023-04-06T06:26:49.782Z,22.00
2023-04-06T06:29:37.188Z,16.47
2023-04-06T06:32:24.712Z,18.30
2023-04-06T06:35:12.166Z,16.00
2023-04-06T06:37:59.567Z,18.60
2023-04-06T06:40:48.079Z,15.50
2023-04-06T06:43:35.664Z,20.50
2023-04-06T06:46:23.128Z,18.57
2023-04-06T06:49:13.110Z,17.03
2023-04-06T06:52:00.605Z,19.80
2023-04-06T06:54:48.035Z,18.37
2023-04-06T06:57:35.426Z,19.00
2023-04-06T07:00:23.066Z,14.43
2023-04-06T07:03:10.585Z,20.73
2023-04-06T07:05:58.321Z,16.80
2023-04-06T07:08:45.814Z,15.83
2023-04-06T07:11:33.277Z,16.13
2023-04-06T07:14:20.830Z,15.67
2023-04-06T07:17:08.524Z,13.50
2023-04-06T07:19:56.049Z,13.63
2023-04-06T07:22:45.515Z,13.03
2023-04-06T07:25:32.950Z,12.73
2023-04-06T07:28:20.503Z,13.70
2023-04-06T07:31:07.860Z,13.57
2023-04-06T07:33:55.589Z,13.17
2023-04-06T07:36:43.102Z,11.77
2023-04-06T07:39:30.551Z,10.17
2023-04-06T07:42:18.048Z,12.47
2023-04-06T07:45:05.642Z,11.05
2023-04-06T07:47:53.055Z,10.80
2023-04-06T07:50:40.537Z,13.55
2023-04-06T07:53:27.907Z,9.95
2023-04-06T07:56:16.498Z,10.95
2023-04-06T07:59:03.989Z,9.48
2023-04-06T08:01:51.431Z,11.45
2023-04-06T08:04:38.821Z,10.50
2023-04-06T08:07:26.264Z,9.93
2023-04-06T08:10:13.680Z,8.18
2023-04-06T08:13:02.062Z,8.02
2023-04-06T08:15:49.513Z,9.07
2023-04-06T08:18:36.999Z,9.55
2023-04-06T08:21:24.455Z,10.20
2023-04-06T08:24:11.843Z,8.50
2023-04-06T08:26:59.310Z,7.47
2023-04-06T08:29:46.818Z,8.63
2023-04-06T08:32:34.426Z,8.43
2023-04-06T08:35:21.971Z,8.67
2023-04-06T08:38:09.404Z,5.93
2023-04-06T08:40:56.936Z,7.60
2023-04-06T08:43:45.362Z,5.57
2023-04-06T08:46:33.259Z,6.47
2023-04-06T08:49:20.886Z,4.60
2023-04-06T08:52:11.761Z,6.57
2023-04-06T08:54:59.202Z,4.87
2023-04-06T08:57:47.373Z,6.33
2023-04-06T09:00:35.218Z,5.60
2023-04-06T09:03:23.461Z,4.80
2023-04-06T09:06:12.079Z,5.05
2023-04-06T09:08:59.637Z,5.83
2023-04-06T09:11:48.244Z,4.50
2023-04-06T09:14:39.162Z,4.87
2023-04-06T09:17:27.279Z,7.13
2023-04-06T09:20:14.848Z,4.87
2023-04-06T09:23:02.362Z,6.07
2023-04-06T09:25:49.877Z,5.82
2023-04-06T09:29:04.399Z,4.87
2023-04-06T09:31:51.905Z,4.83
2023-04-06T09:34:42.290Z,5.70
2023-04-06T09:37:29.724Z,4.40
2023-04-06T09:40:18.531Z,6.67
2023-04-06T09:43:07.966Z,4.60
2023-04-06T09:45:56.557Z,4.13
2023-04-06T09:48:43.946Z,7.17
2023-04-06T09:51:39.892Z,5.13
2023-04-06T09:54:29.093Z,4.95
2023-04-06T09:57:39.256Z,3.37
2023-04-06T10:00:34.150Z,4.73
2023-04-06T10:03:39.209Z,4.33
2023-04-06T10:06:30.159Z,3.63
2023-04-06T10:09:17.740Z,4.70
2023-04-06T10:12:05.956Z,5.30
2023-04-06T10:14:53.451Z,4.73
2023-04-06T10:17:40.863Z,4.77
2023-04-06T10:20:51.542Z,4.20
2023-04-06T10:23:43.246Z,5.40
2023-04-06T10:26:31.029Z,4.00
2023-04-06T10:29:18.448Z,3.97
2023-04-06T10:32:05.948Z,4.53
2023-04-06T10:34:53.452Z,4.73
2023-04-06T10:37:59.507Z,4.07
2023-04-06T10:40:48.717Z,5.67
2023-04-06T10:43:37.389Z,4.17
2023-04-06T10:46:28.301Z,4.97
2023-04-06T10:49:15.783Z,5.07
2023-04-06T10:52:03.219Z,4.07
2023-04-06T10:54:51.260Z,10.07
2023-04-06T10:57:38.921Z,4.20
2023-04-06T11:00:36.013Z,5.37
2023-04-06T11:03:30.802Z,5.63
2023-04-06T11:06:25.192Z,7.87
2023-04-06T11:09:12.668Z,5.73
2023-04-06T11:12:00.135Z,6.97
2023-04-06T11:14:54.756Z,7.17
2023-04-06T11:17:42.415Z,8.30
2023-04-06T11:20:29.837Z,6.13
2023-04-06T11:23:24.130Z,5.77
2023-04-06T11:26:15.187Z,5.17
2023-04-06T11:29:02.879Z,5.10
2023-04-06T11:31:52.571Z,7.60
2023-04-06T11:34:41.950Z,6.80
2023-04-06T11:37:29.399Z,6.73
2023-04-06T11:40:16.859Z,6.33
2023-04-06T11:43:05.820Z,5.80
2023-04-06T11:46:01.382Z,5.90
2023-04-06T11:48:48.849Z,5.83
2023-04-06T11:51:39.254Z,7.50
2023-04-06T11:54:36.435Z,6.20
2023-04-06T11:57:26.235Z,8.37
2023-04-06T12:00:14.012Z,6.13
2023-04-06T12:03:01.733Z,7.97
2023-04-06T12:05:50.428Z,6.97
2023-04-06T12:08:38.015Z,7.73
2023-04-06T12:11:25.666Z,7.60
2023-04-06T12:14:13.788Z,7.50
2023-04-06T12:17:01.912Z,6.93
2023-04-06T12:19:49.384Z,7.50
2023-04-06T12:22:37.326Z,7.90
2023-04-06T12:25:24.797Z,10.53
2023-04-06T12:28:12.329Z,8.13
2023-04-06T12:30:59.788Z,7.47
2023-04-06T12:33:51.088Z,8.27
2023-04-06T12:36:39.634Z,8.40
2023-04-06T12:39:28.658Z,8.60
2023-04-06T12:42:16.742Z,8.57
2023-04-06T12:45:04.276Z,8.03
2023-04-06T12:47:52.295Z,9.43
2023-04-06T12:50:39.744Z,7.37
2023-04-06T12:53:27.177Z,7.10
2023-04-06T12:56:15.481Z,9.90
2023-04-06T12:59:02.941Z,9.27
2023-04-06T13:01:50.543Z,8.30
2023-04-06T13:04:37.972Z,7.70
2023-04-06T13:07:25.421Z,7.77
2023-04-06T13:10:12.807Z,7.73
2023-04-06T13:13:00.922Z,8.43
2023-04-06T13:15:48.328Z,7.27
2023-04-06T13:18:37.677Z,7.43
2023-04-06T13:21:25.820Z,7.03
2023-04-06T13:24:14.448Z,7.57
2023-04-06T13:27:03.681Z,8.13
2023-04-06T13:29:51.382Z,7.03
2023-04-06T13:32:38.765Z,7.77
2023-04-06T13:35:26.574Z,6.73
2023-04-06T13:38:14.233Z,6.90
2023-04-06T13:41:01.692Z,9.73
2023-04-06T13:43:49.228Z,7.93
2023-04-06T13:46:36.906Z,7.50
2023-04-06T13:49:24.298Z,10.07
2023-04-06T13:52:11.736Z,8.20
2023-04-06T13:54:59.069Z,8.87
2023-04-06T13:57:46.445Z,7.30
2023-04-06T14:00:33.918Z,7.57
2023-04-06T14:03:21.769Z,6.60
2023-04-06T14:06:26.870Z,9.30
2023-04-06T14:09:17.541Z,7.23
2023-04-06T14:12:04.991Z,10.23
2023-04-06T14:14:52.382Z,8.93
2023-04-06T14:17:40.639Z,7.30
2023-04-06T14:20:28.112Z,7.10
2023-04-06T14:23:15.459Z,8.43
2023-04-06T14:26:06.388Z,8.23
2023-04-06T14:28:53.824Z,7.10
2023-04-06T14:31:41.180Z,7.27
2023-04-06T14:34:28.712Z,8.67
2023-04-06T14:37:17.427Z,9.30
2023-04-06T14:40:05.090Z,8.80
2023-04-06T14:42:52.643Z,7.93
2023-04-06T14:45:40.287Z,8.20
2023-04-06T14:48:27.745Z,8.67
2023-04-06T14:51:15.207Z,6.23
2023-04-06T14:54:05.961Z,7.73
2023-04-06T14:56:53.322Z,8.40
2023-04-06T14:59:40.774Z,9.17
2023-04-06T15:02:28.304Z,7.47
2023-04-06T15:05:16.025Z,8.80
2023-04-06T15:08:04.615Z,10.03
2023-04-06T15:10:52.357Z,10.43
2023-04-06T15:13:40.739Z,6.73
2023-04-06T15:16:28.161Z,8.83
2023-04-06T15:19:15.596Z,7.60
2023-04-06T15:22:02.966Z,7.90
2023-04-06T15:24:50.533Z,6.03
2023-04-06T15:27:37.875Z,6.17
2023-04-06T15:30:25.317Z,9.50
2023-04-06T15:33:12.831Z,8.40
2023-04-06T15:36:00.348Z,8.27
2023-04-06T15:38:47.769Z,8.23
2023-04-06T15:41:35.483Z,7.70
2023-04-06T15:44:23.194Z,6.97
2023-04-06T15:47:10.574Z,10.53
2023-04-06T15:49:57.932Z,8.40
2023-04-06T15:52:45.406Z,8.13
2023-04-06T15:55:32.906Z,7.90
2023-04-06T15:58:20.300Z,6.87
2023-04-06T16:01:14.107Z,8.03
2023-04-06T16:04:02.487Z,10.23
2023-04-06T16:06:50.550Z,8.70
2023-04-06T16:09:37.882Z,7.77
2023-04-06T16:12:27.181Z,7.70
2023-04-06T16:15:15.236Z,8.23
2023-04-06T16:18:04.066Z,8.20
2023-04-06T16:20:51.452Z,7.83
2023-04-06T16:23:38.860Z,7.53
2023-04-06T16:26:27.065Z,7.17
2023-04-06T16:29:31.756Z,8.73
2023-04-06T16:32:19.151Z,8.40
2023-04-06T16:35:06.793Z,7.10
2023-04-06T16:37:59.870Z,8.10
2023-04-06T16:40:47.275Z,7.30
2023-04-06T16:43:34.750Z,10.70
2023-04-06T16:46:22.254Z,9.00
2023-04-06T16:49:09.649Z,7.90
2023-04-06T16:52:01.802Z,9.00
2023-04-06T16:54:50.156Z,8.30
2023-04-06T16:57:38.530Z,7.03
2023-04-06T17:00:25.958Z,6.70
2023-04-06T17:03:13.492Z,9.00
2023-04-06T17:06:01.179Z,7.43
2023-04-06T17:08:49.220Z,7.33
2023-04-06T17:11:46.032Z,5.90
2023-04-06T17:14:33.800Z,8.73
2023-04-06T17:17:21.464Z,7.50
2023-04-06T17:20:09.325Z,6.30
2023-04-06T17:22:56.678Z,9.27
2023-04-06T17:25:44.163Z,8.03
2023-04-06T17:28:31.620Z,8.07
2023-04-06T17:31:36.896Z,6.97
2023-04-06T17:34:24.376Z,7.70
2023-04-06T17:37:12.259Z,8.73
2023-04-06T17:39:59.816Z,7.20
2023-04-06T17:42:47.222Z,7.40
2023-04-06T17:45:34.716Z,7.93
2023-04-06T17:48:22.100Z,9.67
2023-04-06T17:51:09.550Z,12.63
2023-04-06T17:53:57.170Z,11.90
2023-04-06T17:56:55.201Z,11.27
2023-04-06T17:59:43.994Z,10.23
2023-04-06T18:02:33.564Z,8.30
2023-04-06T18:05:21.564Z,8.97
2023-04-06T18:08:08.956Z,8.33
2023-04-06T18:10:56.356Z,8.70
2023-04-06T18:17:12.644Z,8.27
2023-04-06T18:20:00.334Z,8.67
2023-04-06T18:22:47.769Z,8.80
2023-04-06T18:25:38.483Z,8.23
2023-04-06T18:28:25.870Z,10.50
2023-04-06T18:31:13.374Z,9.87
2023-04-06T18:34:01.708Z,10.63
2023-04-06T18:36:49.479Z,11.00
2023-04-06T18:39:36.870Z,11.33
2023-04-06T18:42:24.324Z,9.63
2023-04-06T18:45:11.933Z,7.90
2023-04-06T18:47:59.511Z,8.30
2023-04-06T18:51:03.213Z,9.63
2023-04-06T18:53:50.695Z,10.20
2023-04-06T18:56:38.865Z,10.40
2023-04-06T18:59:30.306Z,8.97
2023-04-06T19:02:17.817Z,10.43
2023-04-06T19:05:06.165Z,14.07
2023-04-06T19:07:56.045Z,11.17
2023-04-06T19:10:43.450Z,9.97
2023-04-06T19:13:30.826Z,11.43
2023-04-06T19:16:19.093Z,12.07
2023-04-06T19:19:06.567Z,8.67
2023-04-06T19:21:53.919Z,8.20
2023-04-06T19:24:44.912Z,8.33
2023-04-06T19:27:32.250Z,9.10
2023-04-06T19:30:20.102Z,12.73
2023-04-06T19:33:12.441Z,9.10
2023-04-06T19:35:59.865Z,10.43
2023-04-06T19:38:47.337Z,6.70
2023-04-06T19:41:34.687Z,8.30
2023-04-06T19:44:22.031Z,11.50
2023-04-06T19:47:11.739Z,7.97
2023-04-06T19:49:59.110Z,8.80
2023-04-06T19:52:46.554Z,10.23
2023-04-06T19:55:33.919Z,10.13
2023-04-06T19:58:21.558Z,9.37
2023-04-06T20:01:09.047Z,7.93
2023-04-06T20:03:56.794Z,7.70
2023-04-06T20:06:44.251Z,9.00
2023-04-06T20:09:31.864Z,10.70
2023-04-06T20:12:19.267Z,10.03
2023-04-06T20:15:06.846Z,9.47
2023-04-06T20:17:54.943Z,11.20
2023-04-06T20:20:42.502Z,10.53
2023-04-06T20:23:30.005Z,8.30
2023-04-06T20:26:17.567Z,10.23
2023-04-06T20:29:05.299Z,9.10
2023-04-06T20:31:53.381Z,8.70
2023-04-06T20:34:40.941Z,9.03
2023-04-06T20:37:28.681Z,7.87
2023-04-06T20:40:16.278Z,8.33
2023-04-06T20:43:05.534Z,8.57
2023-04-06T20:45:53.333Z,11.33
2023-04-06T20:48:41.129Z,10.60
2023-04-06T20:51:29.446Z,9.23
2023-04-06T20:54:17.576Z,10.03
2023-04-06T20:57:04.994Z,9.90
2023-04-06T20:59:52.678Z,8.20
2023-04-06T21:02:41.001Z,10.10
2023-04-06T21:05:28.620Z,12.27
2023-04-06T21:08:16.145Z,10.57
2023-04-06T21:11:04.445Z,10.73
2023-04-06T21:13:51.804Z,8.73
2023-04-06T21:16:40.369Z,8.30
2023-04-06T21:19:27.772Z,8.87
2023-04-06T21:22:15.206Z,11.33
2023-04-06T21:25:02.561Z,9.03
2023-04-06T21:27:51.718Z,10.30
2023-04-06T21:30:39.155Z,12.37
2023-04-06T21:33:26.496Z,10.33
2023-04-06T21:36:13.919Z,8.27
2023-04-06T21:39:02.483Z,9.40
2023-04-06T21:41:49.915Z,9.90
2023-04-06T21:44:37.362Z,11.00
2023-04-06T21:47:24.712Z,11.17
2023-04-06T21:50:12.113Z,12.03
2023-04-06T21:52:59.482Z,8.87
2023-04-06T21:55:47.388Z,9.53
2023-04-06T21:58:34.742Z,10.10
2023-04-06T22:01:22.195Z,12.07
2023-04-06T22:04:09.771Z,11.37
2023-04-06T22:06:57.334Z,10.37
2023-04-06T22:09:50.326Z,12.20
2023-04-06T22:12:38.766Z,10.60
2023-04-06T22:15:27.159Z,12.27
2023-04-06T22:18:14.588Z,13.10
2023-04-06T22:21:03.531Z,11.60
2023-04-06T22:23:51.268Z,9.67
2023-04-06T22:26:38.621Z,12.93
2023-04-06T22:29:25.997Z,14.03
2023-04-06T22:32:13.433Z,10.53
2023-04-06T22:35:00.929Z,10.70
2023-04-06T22:37:48.277Z,10.27
2023-04-06T22:40:35.630Z,10.73
2023-04-06T22:43:23.009Z,10.57
2023-04-06T22:46:10.424Z,10.13
2023-04-06T22:48:57.824Z,9.10
2023-04-06T22:51:45.271Z,8.90
2023-04-06T22:54:32.667Z,9.00
2023-04-06T22:57:22.378Z,10.17
2023-04-06T23:00:10.191Z,11.03
2023-04-06T23:02:57.865Z,10.63
2023-04-06T23:05:47.504Z,8.93
2023-04-06T23:08:34.853Z,9.37
2023-04-06T23:11:22.326Z,10.50
2023-04-06T23:14:09.773Z,9.33
2023-04-06T23:16:57.172Z,9.33
2023-04-06T23:19:44.561Z,8.97
2023-04-06T23:22:31.945Z,10.57
2023-04-06T23:25:19.405Z,8.47
2023-04-06T23:28:06.792Z,8.23
2023-04-06T23:30:54.217Z,9.53
2023-04-06T23:33:41.648Z,7.97
2023-04-06T23:36:29.097Z,6.73
2023-04-06T23:39:16.589Z,7.43
2023-04-06T23:42:03.998Z,8.80
2023-04-06T23:44:51.411Z,5.80
2023-04-06T23:47:38.858Z,6.57
2023-04-06T23:50:26.360Z,8.20
2023-04-06T23:53:13.775Z,6.33
2023-04-06T23:56:01.323Z,7.43
2023-04-06T23:58:48.675Z,5.83
